sensor_id;sensor_type;location;lat;lon;timestamp;P1;durP1;ratioP1;P2;durP2;ratioP2
68655;SDS011;55638;51.122;13.606;2023-09-18T00:00:33;3.25;;;3.00;;
68655;SDS011;55638;51.122;13.606;2023-09-18T00:02:06;3.08;;;2.40;;
68655;SDS011;55638;51.122;13.606;2023-09-18T00:03:38;2.88;;;2.58;;
68655;SDS011;55638;51.122;13.606;2023-09-18T00:05:10;2.72;;;2.53;;
68655;SDS011;55638;51.122;13.606;2023-09-18T00:06:42;2.70;;;2.50;;
68655;SDS011;55638;51.122;13.606;2023-09-18T00:08:15;3.00;;;2.80;;
68655;SDS011;55638;51.122;13.606;2023-09-18T00:09:48;3.20;;;2.90;;
68655;SDS011;55638;51.122;13.606;2023-09-18T00:11:20;2.47;;;2.28;;
68655;SDS011;55638;51.122;13.606;2023-09-18T00:12:52;2.50;;;2.30;;
68655;SDS011;55638;51.122;13.606;2023-09-18T00:14:24;3.05;;;2.67;;
68655;SDS011;55638;51.122;13.606;2023-09-18T00:15:57;3.33;;;2.78;;
68655;SDS011;55638;51.122;13.606;2023-09-18T00:17:31;3.90;;;3.28;;
68655;SDS011;55638;51.122;13.606;2023-09-18T00:19:03;3.28;;;2.97;;
68655;SDS011;55638;51.122;13.606;2023-09-18T00:20:35;3.38;;;3.08;;
68655;SDS011;55638;51.122;13.606;2023-09-18T00:22:07;3.35;;;2.90;;
68655;SDS011;55638;51.122;13.606;2023-09-18T00:23:39;3.53;;;3.22;;
68655;SDS011;55638;51.122;13.606;2023-09-18T00:25:11;3.72;;;2.60;;
68655;SDS011;55638;51.122;13.606;2023-09-18T00:26:43;3.22;;;2.92;;
68655;SDS011;55638;51.122;13.606;2023-09-18T00:28:15;3.67;;;2.95;;
68655;SDS011;55638;51.122;13.606;2023-09-18T00:29:47;2.80;;;2.60;;
68655;SDS011;55638;51.122;13.606;2023-09-18T00:31:19;3.35;;;3.05;;
68655;SDS011;55638;51.122;13.606;2023-09-18T00:32:51;3.05;;;2.78;;
68655;SDS011;55638;51.122;13.606;2023-09-18T00:34:23;3.10;;;2.90;;
68655;SDS011;55638;51.122;13.606;2023-09-18T00:35:55;2.97;;;2.47;;
68655;SDS011;55638;51.122;13.606;2023-09-18T00:37:28;3.10;;;2.83;;
68655;SDS011;55638;51.122;13.606;2023-09-18T00:39:00;5.25;;;3.20;;
68655;SDS011;55638;51.122;13.606;2023-09-18T00:40:32;3.40;;;3.10;;
68655;SDS011;55638;51.122;13.606;2023-09-18T00:42:04;3.30;;;3.00;;
68655;SDS011;55638;51.122;13.606;2023-09-18T00:43:36;2.83;;;2.63;;
68655;SDS011;55638;51.122;13.606;2023-09-18T00:45:08;3.50;;;3.17;;
68655;SDS011;55638;51.122;13.606;2023-09-18T00:46:41;3.00;;;2.70;;
68655;SDS011;55638;51.122;13.606;2023-09-18T00:48:14;3.55;;;2.97;;
68655;SDS011;55638;51.122;13.606;2023-09-18T00:49:47;3.25;;;2.95;;
68655;SDS011;55638;51.122;13.606;2023-09-18T00:51:21;3.58;;;2.80;;
68655;SDS011;55638;51.122;13.606;2023-09-18T00:52:53;3.00;;;2.80;;
68655;SDS011;55638;51.122;13.606;2023-09-18T00:54:25;3.25;;;2.83;;
68655;SDS011;55638;51.122;13.606;2023-09-18T00:55:58;3.10;;;2.90;;
68655;SDS011;55638;51.122;13.606;2023-09-18T00:57:32;3.45;;;3.15;;
68655;SDS011;55638;51.122;13.606;2023-09-18T00:59:04;2.92;;;2.72;;
68655;SDS011;55638;51.122;13.606;2023-09-18T01:00:36;3.03;;;2.72;;
68655;SDS011;55638;51.122;13.606;2023-09-18T01:02:09;3.20;;;2.90;;
68655;SDS011;55638;51.122;13.606;2023-09-18T01:03:41;3.25;;;2.95;;
68655;SDS011;55638;51.122;13.606;2023-09-18T01:05:13;3.13;;;2.85;;
68655;SDS011;55638;51.122;13.606;2023-09-18T01:06:48;3.10;;;2.90;;
68655;SDS011;55638;51.122;13.606;2023-09-18T01:08:20;3.58;;;3.25;;
68655;SDS011;55638;51.122;13.606;2023-09-18T01:09:52;3.05;;;2.75;;
68655;SDS011;55638;51.122;13.606;2023-09-18T01:11:35;3.08;;;2.80;;
68655;SDS011;55638;51.122;13.606;2023-09-18T01:13:14;2.78;;;2.58;;
68655;SDS011;55638;51.122;13.606;2023-09-18T01:16:59;3.00;;;2.75;;
68655;SDS011;55638;51.122;13.606;2023-09-18T01:18:36;3.22;;;2.92;;
68655;SDS011;55638;51.122;13.606;2023-09-18T01:20:11;3.60;;;3.30;;
68655;SDS011;55638;51.122;13.606;2023-09-18T01:21:44;3.65;;;3.35;;
68655;SDS011;55638;51.122;13.606;2023-09-18T01:23:16;3.10;;;2.90;;
68655;SDS011;55638;51.122;13.606;2023-09-18T01:24:49;3.58;;;3.08;;
68655;SDS011;55638;51.122;13.606;2023-09-18T01:26:21;4.00;;;2.92;;
68655;SDS011;55638;51.122;13.606;2023-09-18T01:27:52;3.50;;;2.72;;
68655;SDS011;55638;51.122;13.606;2023-09-18T01:29:24;3.17;;;2.88;;
68655;SDS011;55638;51.122;13.606;2023-09-18T01:30:56;4.10;;;3.10;;
68655;SDS011;55638;51.122;13.606;2023-09-18T01:32:29;3.35;;;3.05;;
68655;SDS011;55638;51.122;13.606;2023-09-18T01:34:03;3.35;;;3.05;;
68655;SDS011;55638;51.122;13.606;2023-09-18T01:35:35;3.67;;;2.97;;
68655;SDS011;55638;51.122;13.606;2023-09-18T01:37:09;3.08;;;2.85;;
68655;SDS011;55638;51.122;13.606;2023-09-18T01:38:42;2.58;;;2.38;;
68655;SDS011;55638;51.122;13.606;2023-09-18T01:40:16;3.38;;;3.08;;
68655;SDS011;55638;51.122;13.606;2023-09-18T01:41:49;3.72;;;3.42;;
68655;SDS011;55638;51.122;13.606;2023-09-18T01:43:21;3.22;;;3.00;;
68655;SDS011;55638;51.122;13.606;2023-09-18T01:44:54;3.53;;;2.95;;
68655;SDS011;55638;51.122;13.606;2023-09-18T01:46:26;3.33;;;3.03;;
68655;SDS011;55638;51.122;13.606;2023-09-18T01:47:58;3.40;;;3.10;;
68655;SDS011;55638;51.122;13.606;2023-09-18T01:49:34;3.50;;;3.20;;
68655;SDS011;55638;51.122;13.606;2023-09-18T01:51:08;3.53;;;3.22;;
68655;SDS011;55638;51.122;13.606;2023-09-18T01:52:40;3.40;;;3.10;;
68655;SDS011;55638;51.122;13.606;2023-09-18T01:54:12;3.60;;;3.30;;
68655;SDS011;55638;51.122;13.606;2023-09-18T01:55:44;3.97;;;3.10;;
68655;SDS011;55638;51.122;13.606;2023-09-18T01:57:16;3.28;;;2.97;;
68655;SDS011;55638;51.122;13.606;2023-09-18T01:58:48;3.45;;;3.15;;
68655;SDS011;55638;51.122;13.606;2023-09-18T02:00:21;3.15;;;2.85;;
68655;SDS011;55638;51.122;13.606;2023-09-18T02:01:54;3.35;;;3.05;;
68655;SDS011;55638;51.122;13.606;2023-09-18T02:03:27;3.40;;;3.10;;
68655;SDS011;55638;51.122;13.606;2023-09-18T02:05:19;4.10;;;3.65;;
68655;SDS011;55638;51.122;13.606;2023-09-18T02:06:51;3.53;;;3.22;;
68655;SDS011;55638;51.122;13.606;2023-09-18T02:08:23;3.65;;;3.35;;
68655;SDS011;55638;51.122;13.606;2023-09-18T02:09:55;3.92;;;3.30;;
68655;SDS011;55638;51.122;13.606;2023-09-18T02:11:27;3.78;;;3.47;;
68655;SDS011;55638;51.122;13.606;2023-09-18T02:13:00;3.60;;;3.30;;
68655;SDS011;55638;51.122;13.606;2023-09-18T02:14:32;3.75;;;3.45;;
68655;SDS011;55638;51.122;13.606;2023-09-18T02:16:05;3.72;;;3.28;;
68655;SDS011;55638;51.122;13.606;2023-09-18T02:17:37;4.43;;;3.08;;
68655;SDS011;55638;51.122;13.606;2023-09-18T02:19:10;3.58;;;3.28;;
68655;SDS011;55638;51.122;13.606;2023-09-18T02:20:42;3.40;;;3.10;;
68655;SDS011;55638;51.122;13.606;2023-09-18T02:22:19;3.50;;;3.20;;
68655;SDS011;55638;51.122;13.606;2023-09-18T02:23:51;6.88;;;4.18;;
68655;SDS011;55638;51.122;13.606;2023-09-18T02:25:23;3.80;;;3.50;;
68655;SDS011;55638;51.122;13.606;2023-09-18T02:26:56;3.58;;;3.28;;
68655;SDS011;55638;51.122;13.606;2023-09-18T02:28:29;4.57;;;3.20;;
68655;SDS011;55638;51.122;13.606;2023-09-18T02:30:02;3.88;;;3.58;;
68655;SDS011;55638;51.122;13.606;2023-09-18T02:31:35;5.45;;;3.70;;
68655;SDS011;55638;51.122;13.606;2023-09-18T02:33:07;5.05;;;3.47;;
68655;SDS011;55638;51.122;13.606;2023-09-18T02:34:39;4.20;;;3.63;;
68655;SDS011;55638;51.122;13.606;2023-09-18T02:36:11;3.72;;;3.42;;
68655;SDS011;55638;51.122;13.606;2023-09-18T02:37:43;4.53;;;3.80;;
68655;SDS011;55638;51.122;13.606;2023-09-18T02:39:14;3.80;;;3.50;;
68655;SDS011;55638;51.122;13.606;2023-09-18T02:40:46;4.18;;;3.88;;
68655;SDS011;55638;51.122;13.606;2023-09-18T02:42:18;4.32;;;3.72;;
68655;SDS011;55638;51.122;13.606;2023-09-18T02:43:50;4.35;;;3.95;;
68655;SDS011;55638;51.122;13.606;2023-09-18T02:45:22;3.80;;;3.50;;
68655;SDS011;55638;51.122;13.606;2023-09-18T02:46:54;5.22;;;3.72;;
68655;SDS011;55638;51.122;13.606;2023-09-18T02:48:26;4.15;;;3.75;;
68655;SDS011;55638;51.122;13.606;2023-09-18T02:49:58;3.92;;;3.42;;
68655;SDS011;55638;51.122;13.606;2023-09-18T02:51:30;4.25;;;3.83;;
68655;SDS011;55638;51.122;13.606;2023-09-18T02:53:05;3.60;;;3.30;;
68655;SDS011;55638;51.122;13.606;2023-09-18T02:54:40;3.83;;;3.53;;
68655;SDS011;55638;51.122;13.606;2023-09-18T02:56:12;3.70;;;3.40;;
68655;SDS011;55638;51.122;13.606;2023-09-18T02:57:45;3.80;;;3.50;;
68655;SDS011;55638;51.122;13.606;2023-09-18T02:59:16;4.53;;;3.67;;
68655;SDS011;55638;51.122;13.606;2023-09-18T03:00:50;4.22;;;3.83;;
68655;SDS011;55638;51.122;13.606;2023-09-18T03:02:22;3.50;;;3.20;;
68655;SDS011;55638;51.122;13.606;2023-09-18T03:03:54;3.72;;;3.42;;
68655;SDS011;55638;51.122;13.606;2023-09-18T03:05:26;4.07;;;3.75;;
68655;SDS011;55638;51.122;13.606;2023-09-18T03:06:58;4.25;;;3.75;;
68655;SDS011;55638;51.122;13.606;2023-09-18T03:08:30;3.65;;;3.35;;
68655;SDS011;55638;51.122;13.606;2023-09-18T03:10:04;3.88;;;3.47;;
68655;SDS011;55638;51.122;13.606;2023-09-18T03:11:37;3.92;;;3.60;;
68655;SDS011;55638;51.122;13.606;2023-09-18T03:13:09;3.97;;;3.67;;
68655;SDS011;55638;51.122;13.606;2023-09-18T03:14:42;3.80;;;3.30;;
68655;SDS011;55638;51.122;13.606;2023-09-18T03:16:15;4.28;;;3.50;;
68655;SDS011;55638;51.122;13.606;2023-09-18T03:17:50;3.85;;;3.50;;
68655;SDS011;55638;51.122;13.606;2023-09-18T03:19:22;3.80;;;3.42;;
68655;SDS011;55638;51.122;13.606;2023-09-18T03:20:56;3.80;;;3.50;;
68655;SDS011;55638;51.122;13.606;2023-09-18T03:22:28;4.05;;;3.42;;
68655;SDS011;55638;51.122;13.606;2023-09-18T03:24:00;4.68;;;4.07;;
68655;SDS011;55638;51.122;13.606;2023-09-18T03:25:32;3.40;;;3.03;;
68655;SDS011;55638;51.122;13.606;2023-09-18T03:27:22;3.72;;;3.42;;
68655;SDS011;55638;51.122;13.606;2023-09-18T03:29:01;3.85;;;3.33;;
68655;SDS011;55638;51.122;13.606;2023-09-18T03:30:33;4.20;;;3.80;;
68655;SDS011;55638;51.122;13.606;2023-09-18T03:32:06;3.45;;;3.15;;
68655;SDS011;55638;51.122;13.606;2023-09-18T03:33:37;4.07;;;3.60;;
68655;SDS011;55638;51.122;13.606;2023-09-18T03:35:10;3.80;;;3.50;;
68655;SDS011;55638;51.122;13.606;2023-09-18T03:36:52;4.22;;;3.83;;
68655;SDS011;55638;51.122;13.606;2023-09-18T03:38:24;3.95;;;3.65;;
68655;SDS011;55638;51.122;13.606;2023-09-18T03:39:57;5.47;;;4.05;;
68655;SDS011;55638;51.122;13.606;2023-09-18T03:41:29;4.40;;;4.00;;
68655;SDS011;55638;51.122;13.606;2023-09-18T03:43:06;3.72;;;3.42;;
68655;SDS011;55638;51.122;13.606;2023-09-18T03:44:39;3.85;;;3.47;;
68655;SDS011;55638;51.122;13.606;2023-09-18T03:46:11;4.25;;;3.85;;
68655;SDS011;55638;51.122;13.606;2023-09-18T03:47:48;4.18;;;3.83;;
68655;SDS011;55638;51.122;13.606;2023-09-18T03:49:21;4.15;;;3.72;;
68655;SDS011;55638;51.122;13.606;2023-09-18T03:50:56;4.15;;;3.78;;
68655;SDS011;55638;51.122;13.606;2023-09-18T03:52:27;4.88;;;4.18;;
68655;SDS011;55638;51.122;13.606;2023-09-18T03:53:59;5.38;;;4.28;;
68655;SDS011;55638;51.122;13.606;2023-09-18T03:55:31;4.43;;;4.03;;
68655;SDS011;55638;51.122;13.606;2023-09-18T03:57:03;4.25;;;3.85;;
68655;SDS011;55638;51.122;13.606;2023-09-18T03:58:36;5.00;;;4.05;;
68655;SDS011;55638;51.122;13.606;2023-09-18T04:00:08;3.92;;;3.60;;
68655;SDS011;55638;51.122;13.606;2023-09-18T04:01:44;4.22;;;3.80;;
68655;SDS011;55638;51.122;13.606;2023-09-18T04:03:17;4.05;;;3.72;;
68655;SDS011;55638;51.122;13.606;2023-09-18T04:04:49;4.30;;;3.90;;
68655;SDS011;55638;51.122;13.606;2023-09-18T04:06:21;4.18;;;3.30;;
68655;SDS011;55638;51.122;13.606;2023-09-18T04:07:55;4.03;;;3.63;;
68655;SDS011;55638;51.122;13.606;2023-09-18T04:09:27;4.10;;;3.70;;
68655;SDS011;55638;51.122;13.606;2023-09-18T04:10:59;3.90;;;3.60;;
68655;SDS011;55638;51.122;13.606;2023-09-18T04:12:31;4.35;;;3.95;;
68655;SDS011;55638;51.122;13.606;2023-09-18T04:14:03;4.07;;;3.67;;
68655;SDS011;55638;51.122;13.606;2023-09-18T04:15:35;4.45;;;4.05;;
68655;SDS011;55638;51.122;13.606;2023-09-18T04:17:09;4.28;;;3.42;;
68655;SDS011;55638;51.122;13.606;2023-09-18T04:18:42;4.75;;;4.07;;
68655;SDS011;55638;51.122;13.606;2023-09-18T04:20:14;4.38;;;3.78;;
68655;SDS011;55638;51.122;13.606;2023-09-18T04:21:47;3.80;;;3.50;;
68655;SDS011;55638;51.122;13.606;2023-09-18T04:23:20;4.28;;;3.88;;
68655;SDS011;55638;51.122;13.606;2023-09-18T04:24:57;5.78;;;4.22;;
68655;SDS011;55638;51.122;13.606;2023-09-18T04:26:28;4.22;;;3.83;;
68655;SDS011;55638;51.122;13.606;2023-09-18T04:28:05;3.72;;;3.42;;
68655;SDS011;55638;51.122;13.606;2023-09-18T04:29:37;3.97;;;3.60;;
68655;SDS011;55638;51.122;13.606;2023-09-18T04:31:10;5.50;;;4.05;;
68655;SDS011;55638;51.122;13.606;2023-09-18T04:32:42;4.70;;;3.85;;
68655;SDS011;55638;51.122;13.606;2023-09-18T04:34:14;4.95;;;4.03;;
68655;SDS011;55638;51.122;13.606;2023-09-18T04:35:46;4.68;;;3.88;;
68655;SDS011;55638;51.122;13.606;2023-09-18T04:37:19;4.65;;;4.05;;
68655;SDS011;55638;51.122;13.606;2023-09-18T04:38:51;4.50;;;4.05;;
68655;SDS011;55638;51.122;13.606;2023-09-18T04:40:23;5.13;;;4.57;;
68655;SDS011;55638;51.122;13.606;2023-09-18T04:41:55;4.57;;;4.18;;
68655;SDS011;55638;51.122;13.606;2023-09-18T04:43:27;4.55;;;4.15;;
68655;SDS011;55638;51.122;13.606;2023-09-18T04:45:02;4.45;;;4.03;;
68655;SDS011;55638;51.122;13.606;2023-09-18T04:46:34;4.40;;;4.00;;
68655;SDS011;55638;51.122;13.606;2023-09-18T04:48:07;4.22;;;3.83;;
68655;SDS011;55638;51.122;13.606;2023-09-18T04:49:40;4.50;;;4.10;;
68655;SDS011;55638;51.122;13.606;2023-09-18T04:51:12;4.18;;;3.83;;
68655;SDS011;55638;51.122;13.606;2023-09-18T04:52:44;5.80;;;3.78;;
68655;SDS011;55638;51.122;13.606;2023-09-18T04:54:18;4.50;;;4.10;;
68655;SDS011;55638;51.122;13.606;2023-09-18T04:55:50;4.18;;;3.78;;
68655;SDS011;55638;51.122;13.606;2023-09-18T04:57:22;5.03;;;4.18;;
68655;SDS011;55638;51.122;13.606;2023-09-18T04:58:54;4.47;;;4.07;;
68655;SDS011;55638;51.122;13.606;2023-09-18T05:00:26;4.25;;;3.85;;
68655;SDS011;55638;51.122;13.606;2023-09-18T05:02:01;5.28;;;4.07;;
68655;SDS011;55638;51.122;13.606;2023-09-18T05:03:34;4.18;;;3.78;;
68655;SDS011;55638;51.122;13.606;2023-09-18T05:05:07;4.40;;;4.00;;
68655;SDS011;55638;51.122;13.606;2023-09-18T05:06:42;4.05;;;3.72;;
68655;SDS011;55638;51.122;13.606;2023-09-18T05:08:14;4.88;;;4.30;;
68655;SDS011;55638;51.122;13.606;2023-09-18T05:09:47;4.10;;;3.70;;
68655;SDS011;55638;51.122;13.606;2023-09-18T05:11:18;4.80;;;4.40;;
68655;SDS011;55638;51.122;13.606;2023-09-18T05:12:51;4.50;;;4.10;;
68655;SDS011;55638;51.122;13.606;2023-09-18T05:14:30;4.22;;;3.88;;
68655;SDS011;55638;51.122;13.606;2023-09-18T05:16:02;4.28;;;3.97;;
68655;SDS011;55638;51.122;13.606;2023-09-18T05:19:14;4.57;;;4.18;;
68655;SDS011;55638;51.122;13.606;2023-09-18T05:20:46;5.03;;;4.32;;
68655;SDS011;55638;51.122;13.606;2023-09-18T05:22:18;4.22;;;3.78;;
68655;SDS011;55638;51.122;13.606;2023-09-18T05:23:50;4.85;;;4.35;;
68655;SDS011;55638;51.122;13.606;2023-09-18T05:25:23;4.63;;;4.20;;
68655;SDS011;55638;51.122;13.606;2023-09-18T05:26:59;4.60;;;4.10;;
68655;SDS011;55638;51.122;13.606;2023-09-18T05:28:31;4.28;;;3.88;;
68655;SDS011;55638;51.122;13.606;2023-09-18T05:30:03;4.25;;;3.85;;
68655;SDS011;55638;51.122;13.606;2023-09-18T05:31:36;4.80;;;4.40;;
68655;SDS011;55638;51.122;13.606;2023-09-18T05:33:09;4.53;;;4.13;;
68655;SDS011;55638;51.122;13.606;2023-09-18T05:34:41;4.80;;;4.30;;
68655;SDS011;55638;51.122;13.606;2023-09-18T05:36:13;4.80;;;4.30;;
68655;SDS011;55638;51.122;13.606;2023-09-18T05:37:46;4.60;;;4.20;;
68655;SDS011;55638;51.122;13.606;2023-09-18T05:39:18;4.57;;;4.18;;
68655;SDS011;55638;51.122;13.606;2023-09-18T05:40:50;4.90;;;4.50;;
68655;SDS011;55638;51.122;13.606;2023-09-18T05:42:22;4.60;;;4.13;;
68655;SDS011;55638;51.122;13.606;2023-09-18T05:43:57;4.30;;;3.95;;
68655;SDS011;55638;51.122;13.606;2023-09-18T05:45:28;4.65;;;4.25;;
68655;SDS011;55638;51.122;13.606;2023-09-18T05:47:02;4.75;;;4.35;;
68655;SDS011;55638;51.122;13.606;2023-09-18T05:48:35;4.70;;;4.30;;
68655;SDS011;55638;51.122;13.606;2023-09-18T05:50:08;4.53;;;4.07;;
68655;SDS011;55638;51.122;13.606;2023-09-18T05:51:41;5.53;;;3.95;;
68655;SDS011;55638;51.122;13.606;2023-09-18T05:53:13;6.22;;;4.20;;
68655;SDS011;55638;51.122;13.606;2023-09-18T05:54:45;5.00;;;4.57;;
68655;SDS011;55638;51.122;13.606;2023-09-18T05:56:17;4.70;;;4.22;;
68655;SDS011;55638;51.122;13.606;2023-09-18T05:57:49;4.70;;;4.30;;
68655;SDS011;55638;51.122;13.606;2023-09-18T05:59:21;4.57;;;3.70;;
68655;SDS011;55638;51.122;13.606;2023-09-18T06:00:53;4.47;;;4.07;;
68655;SDS011;55638;51.122;13.606;2023-09-18T06:02:25;4.50;;;4.10;;
68655;SDS011;55638;51.122;13.606;2023-09-18T06:03:57;4.30;;;3.92;;
68655;SDS011;55638;51.122;13.606;2023-09-18T06:05:30;4.40;;;4.00;;
68655;SDS011;55638;51.122;13.606;2023-09-18T06:07:03;4.75;;;4.20;;
68655;SDS011;55638;51.122;13.606;2023-09-18T06:08:35;4.30;;;3.90;;
68655;SDS011;55638;51.122;13.606;2023-09-18T06:10:07;4.88;;;4.43;;
68655;SDS011;55638;51.122;13.606;2023-09-18T06:11:40;4.47;;;4.07;;
68655;SDS011;55638;51.122;13.606;2023-09-18T06:13:12;5.07;;;4.60;;
68655;SDS011;55638;51.122;13.606;2023-09-18T06:14:44;6.65;;;4.65;;
68655;SDS011;55638;51.122;13.606;2023-09-18T06:16:18;4.45;;;4.05;;
68655;SDS011;55638;51.122;13.606;2023-09-18T06:17:50;4.70;;;4.30;;
68655;SDS011;55638;51.122;13.606;2023-09-18T06:19:22;6.13;;;4.50;;
68655;SDS011;55638;51.122;13.606;2023-09-18T06:20:54;4.78;;;4.28;;
68655;SDS011;55638;51.122;13.606;2023-09-18T06:22:26;4.50;;;4.10;;
68655;SDS011;55638;51.122;13.606;2023-09-18T06:23:58;4.97;;;4.05;;
68655;SDS011;55638;51.122;13.606;2023-09-18T06:25:30;5.05;;;4.25;;
68655;SDS011;55638;51.122;13.606;2023-09-18T06:27:03;4.50;;;4.07;;
68655;SDS011;55638;51.122;13.606;2023-09-18T06:28:38;4.97;;;4.47;;
68655;SDS011;55638;51.122;13.606;2023-09-18T06:30:10;4.57;;;4.18;;
68655;SDS011;55638;51.122;13.606;2023-09-18T06:31:42;4.40;;;4.00;;
68655;SDS011;55638;51.122;13.606;2023-09-18T06:33:14;5.13;;;4.05;;
68655;SDS011;55638;51.122;13.606;2023-09-18T06:34:47;4.97;;;4.38;;
68655;SDS011;55638;51.122;13.606;2023-09-18T06:36:19;4.53;;;4.13;;
68655;SDS011;55638;51.122;13.606;2023-09-18T06:37:51;5.50;;;4.85;;
68655;SDS011;55638;51.122;13.606;2023-09-18T06:39:23;4.55;;;3.70;;
68655;SDS011;55638;51.122;13.606;2023-09-18T06:40:56;5.03;;;4.13;;
68655;SDS011;55638;51.122;13.606;2023-09-18T06:42:28;5.70;;;4.22;;
68655;SDS011;55638;51.122;13.606;2023-09-18T06:44:03;4.30;;;3.90;;
68655;SDS011;55638;51.122;13.606;2023-09-18T06:45:35;4.45;;;4.05;;
68655;SDS011;55638;51.122;13.606;2023-09-18T06:47:09;4.85;;;4.35;;
68655;SDS011;55638;51.122;13.606;2023-09-18T06:48:41;4.53;;;4.13;;
68655;SDS011;55638;51.122;13.606;2023-09-18T06:50:17;4.35;;;4.05;;
68655;SDS011;55638;51.122;13.606;2023-09-18T06:51:50;4.35;;;3.97;;
68655;SDS011;55638;51.122;13.606;2023-09-18T06:53:22;4.50;;;4.10;;
68655;SDS011;55638;51.122;13.606;2023-09-18T06:54:54;4.82;;;4.07;;
68655;SDS011;55638;51.122;13.606;2023-09-18T06:56:26;4.72;;;4.32;;
68655;SDS011;55638;51.122;13.606;2023-09-18T06:57:58;5.18;;;4.75;;
68655;SDS011;55638;51.122;13.606;2023-09-18T06:59:30;5.78;;;4.22;;
68655;SDS011;55638;51.122;13.606;2023-09-18T07:01:02;5.15;;;4.65;;
68655;SDS011;55638;51.122;13.606;2023-09-18T07:02:38;4.40;;;4.00;;
68655;SDS011;55638;51.122;13.606;2023-09-18T07:04:11;4.82;;;4.40;;
68655;SDS011;55638;51.122;13.606;2023-09-18T07:05:43;4.70;;;4.15;;
68655;SDS011;55638;51.122;13.606;2023-09-18T07:07:15;4.90;;;4.40;;
68655;SDS011;55638;51.122;13.606;2023-09-18T07:08:47;5.20;;;4.57;;
68655;SDS011;55638;51.122;13.606;2023-09-18T07:10:23;4.57;;;4.18;;
68655;SDS011;55638;51.122;13.606;2023-09-18T07:11:55;4.32;;;3.92;;
68655;SDS011;55638;51.122;13.606;2023-09-18T07:13:27;4.70;;;4.20;;
68655;SDS011;55638;51.122;13.606;2023-09-18T07:15:00;5.88;;;4.43;;
68655;SDS011;55638;51.122;13.606;2023-09-18T07:16:35;4.82;;;4.32;;
68655;SDS011;55638;51.122;13.606;2023-09-18T07:18:06;4.60;;;4.20;;
68655;SDS011;55638;51.122;13.606;2023-09-18T07:19:39;6.25;;;4.50;;
68655;SDS011;55638;51.122;13.606;2023-09-18T07:21:11;4.78;;;4.38;;
68655;SDS011;55638;51.122;13.606;2023-09-18T07:22:45;4.80;;;4.28;;
68655;SDS011;55638;51.122;13.606;2023-09-18T07:24:18;5.30;;;4.80;;
68655;SDS011;55638;51.122;13.606;2023-09-18T07:25:52;4.53;;;4.10;;
68655;SDS011;55638;51.122;13.606;2023-09-18T07:27:24;4.50;;;4.10;;
68655;SDS011;55638;51.122;13.606;2023-09-18T07:28:56;4.70;;;4.30;;
68655;SDS011;55638;51.122;13.606;2023-09-18T07:30:31;4.78;;;4.22;;
68655;SDS011;55638;51.122;13.606;2023-09-18T07:32:06;4.28;;;3.97;;
68655;SDS011;55638;51.122;13.606;2023-09-18T07:33:38;4.43;;;4.10;;
68655;SDS011;55638;51.122;13.606;2023-09-18T07:35:11;4.82;;;4.43;;
68655;SDS011;55638;51.122;13.606;2023-09-18T07:36:43;3.95;;;3.65;;
68655;SDS011;55638;51.122;13.606;2023-09-18T07:38:16;5.22;;;4.28;;
68655;SDS011;55638;51.122;13.606;2023-09-18T07:39:50;4.95;;;4.13;;
68655;SDS011;55638;51.122;13.606;2023-09-18T07:41:22;4.70;;;3.75;;
68655;SDS011;55638;51.122;13.606;2023-09-18T07:42:54;4.60;;;4.10;;
68655;SDS011;55638;51.122;13.606;2023-09-18T07:44:26;4.43;;;4.03;;
68655;SDS011;55638;51.122;13.606;2023-09-18T07:45:58;4.55;;;4.15;;
68655;SDS011;55638;51.122;13.606;2023-09-18T07:47:31;4.65;;;4.15;;
68655;SDS011;55638;51.122;13.606;2023-09-18T07:49:03;4.47;;;4.07;;
68655;SDS011;55638;51.122;13.606;2023-09-18T07:50:35;4.60;;;4.20;;
68655;SDS011;55638;51.122;13.606;2023-09-18T07:52:07;5.15;;;4.07;;
68655;SDS011;55638;51.122;13.606;2023-09-18T07:53:39;4.65;;;4.25;;
68655;SDS011;55638;51.122;13.606;2023-09-18T07:55:11;5.00;;;4.57;;
68655;SDS011;55638;51.122;13.606;2023-09-18T07:56:43;5.20;;;4.13;;
68655;SDS011;55638;51.122;13.606;2023-09-18T07:58:15;4.05;;;3.70;;
68655;SDS011;55638;51.122;13.606;2023-09-18T07:59:47;4.50;;;4.10;;
68655;SDS011;55638;51.122;13.606;2023-09-18T08:01:19;4.22;;;3.92;;
68655;SDS011;55638;51.122;13.606;2023-09-18T08:02:54;7.20;;;4.35;;
68655;SDS011;55638;51.122;13.606;2023-09-18T08:04:32;4.00;;;3.70;;
68655;SDS011;55638;51.122;13.606;2023-09-18T08:06:04;4.25;;;3.95;;
68655;SDS011;55638;51.122;13.606;2023-09-18T08:07:36;4.20;;;3.90;;
68655;SDS011;55638;51.122;13.606;2023-09-18T08:09:09;4.68;;;4.15;;
68655;SDS011;55638;51.122;13.606;2023-09-18T08:10:47;5.07;;;4.20;;
68655;SDS011;55638;51.122;13.606;2023-09-18T08:12:19;4.68;;;4.13;;
68655;SDS011;55638;51.122;13.606;2023-09-18T08:13:51;4.43;;;3.70;;
68655;SDS011;55638;51.122;13.606;2023-09-18T08:15:23;3.65;;;3.35;;
68655;SDS011;55638;51.122;13.606;2023-09-18T08:16:59;5.45;;;3.90;;
68655;SDS011;55638;51.122;13.606;2023-09-18T08:18:34;4.20;;;3.90;;
68655;SDS011;55638;51.122;13.606;2023-09-18T08:20:07;4.43;;;4.03;;
68655;SDS011;55638;51.122;13.606;2023-09-18T08:21:44;4.05;;;3.75;;
68655;SDS011;55638;51.122;13.606;2023-09-18T08:23:16;4.82;;;3.90;;
68655;SDS011;55638;51.122;13.606;2023-09-18T08:24:48;3.92;;;3.63;;
68655;SDS011;55638;51.122;13.606;2023-09-18T08:26:20;4.10;;;3.67;;
68655;SDS011;55638;51.122;13.606;2023-09-18T08:27:52;3.90;;;3.60;;
68655;SDS011;55638;51.122;13.606;2023-09-18T08:29:24;3.53;;;3.22;;
68655;SDS011;55638;51.122;13.606;2023-09-18T08:30:56;3.88;;;3.58;;
68655;SDS011;55638;51.122;13.606;2023-09-18T08:32:30;3.83;;;3.53;;
68655;SDS011;55638;51.122;13.606;2023-09-18T08:34:05;3.63;;;3.33;;
68655;SDS011;55638;51.122;13.606;2023-09-18T08:35:37;4.20;;;3.90;;
68655;SDS011;55638;51.122;13.606;2023-09-18T08:37:11;3.75;;;3.45;;
68655;SDS011;55638;51.122;13.606;2023-09-18T08:38:43;3.80;;;3.50;;
68655;SDS011;55638;51.122;13.606;2023-09-18T08:40:15;3.95;;;3.65;;
68655;SDS011;55638;51.122;13.606;2023-09-18T08:41:48;3.80;;;3.50;;
68655;SDS011;55638;51.122;13.606;2023-09-18T08:43:22;3.60;;;3.30;;
68655;SDS011;55638;51.122;13.606;2023-09-18T08:44:55;4.35;;;3.95;;
68655;SDS011;55638;51.122;13.606;2023-09-18T08:46:31;4.22;;;3.45;;
68655;SDS011;55638;51.122;13.606;2023-09-18T08:48:04;9.38;;;3.70;;
68655;SDS011;55638;51.122;13.606;2023-09-18T08:49:38;3.70;;;3.35;;
68655;SDS011;55638;51.122;13.606;2023-09-18T08:51:11;3.55;;;3.28;;
68655;SDS011;55638;51.122;13.606;2023-09-18T08:52:43;4.00;;;3.15;;
68655;SDS011;55638;51.122;13.606;2023-09-18T08:54:17;3.65;;;3.00;;
68655;SDS011;55638;51.122;13.606;2023-09-18T08:55:49;3.38;;;3.08;;
68655;SDS011;55638;51.122;13.606;2023-09-18T08:57:21;3.10;;;2.90;;
68655;SDS011;55638;51.122;13.606;2023-09-18T08:58:54;3.42;;;3.10;;
68655;SDS011;55638;51.122;13.606;2023-09-18T09:00:28;3.42;;;3.13;;
68655;SDS011;55638;51.122;13.606;2023-09-18T09:02:00;3.00;;;2.80;;
68655;SDS011;55638;51.122;13.606;2023-09-18T09:03:32;3.10;;;2.90;;
68655;SDS011;55638;51.122;13.606;2023-09-18T09:05:06;3.22;;;3.00;;
68655;SDS011;55638;51.122;13.606;2023-09-18T09:06:38;3.30;;;3.00;;
68655;SDS011;55638;51.122;13.606;2023-09-18T09:08:10;3.40;;;3.10;;
68655;SDS011;55638;51.122;13.606;2023-09-18T09:09:42;3.58;;;3.28;;
68655;SDS011;55638;51.122;13.606;2023-09-18T09:11:14;3.20;;;2.90;;
68655;SDS011;55638;51.122;13.606;2023-09-18T09:12:50;3.30;;;3.00;;
68655;SDS011;55638;51.122;13.606;2023-09-18T09:14:25;4.35;;;2.97;;